Time;durP1;ratioP1;P1;durP2;ratioP2;P2;SDS_P1;SDS_P2;PMS_P1;PMS_P2;Temp;Humidity;BMP_temperature;BMP_pressure;BME280_temperature;BME280_humidity;BME280_pressure;Samples;Min_cycle;Max_cycle;Signal;HPM_P1;HPM_P2
2022/08/16 00:01:55;;;;;;;15.55;12.15;;;20.60;99.90;;;;;;5051127;28;20186;-75
2022/08/16 00:04:21;;;;;;;16.00;12.90;;;20.50;99.90;;;;;;5051204;28;20048;-74
2022/08/16 00:06:47;;;;;;;16.05;12.63;;;20.50;99.90;;;;;;5049596;28;20086;-76
2022/08/16 00:09:12;;;;;;;16.38;12.38;;;20.50;99.90;;;;;;5049508;28;20037;-73
2022/08/16 00:11:39;;;;;;;18.10;13.10;;;20.50;99.90;;;;;;5036497;28;20402;-76
2022/08/16 00:14:08;;;;;;;13.52;11.80;;;20.50;99.90;;;;;;5069380;28;20043;-73
2022/08/16 00:16:34;;;;;;;13.60;12.15;;;20.50;99.90;;;;;;5049380;28;20049;-75
2022/08/16 00:19:00;;;;;;;16.08;12.88;;;20.50;99.90;;;;;;5069206;28;20033;-75
2022/08/16 00:21:26;;;;;;;14.65;12.25;;;20.50;99.90;;;;;;5068468;28;20503;-74
2022/08/16 00:23:52;;;;;;;18.55;13.02;;;20.50;99.90;;;;;;5067345;28;20123;-74
2022/08/16 00:26:18;;;;;;;16.75;13.27;;;20.50;99.90;;;;;;5068288;28;20136;-73
2022/08/16 00:28:43;;;;;;;14.70;11.85;;;20.50;99.90;;;;;;5031402;28;20533;-74
2022/08/16 00:31:09;;;;;;;16.77;12.32;;;20.50;99.90;;;;;;5032543;28;20107;-74
2022/08/16 00:33:34;;;;;;;14.15;11.30;;;20.50;99.90;;;;;;5049367;28;20056;-75
2022/08/16 00:36:00;;;;;;;19.45;11.25;;;20.50;99.90;;;;;;5032586;28;20044;-75
2022/08/16 00:38:26;;;;;;;12.75;11.02;;;20.50;99.90;;;;;;5065651;28;20048;-75
2022/08/16 00:40:53;;;;;;;14.68;12.02;;;20.50;99.90;;;;;;5050757;28;20048;-74
2022/08/16 00:43:23;;;;;;;14.13;11.80;;;20.50;99.90;;;;;;5050380;28;20068;-75
2022/08/16 00:46:18;;;;;;;15.30;12.98;;;20.50;99.90;;;;;;5067266;28;20048;-74
2022/08/16 00:48:44;;;;;;;14.85;11.52;;;20.50;99.90;;;;;;5050212;28;20117;-74
2022/08/16 00:51:11;;;;;;;19.33;11.70;;;20.50;99.90;;;;;;5050794;28;20052;-75
2022/08/16 00:53:38;;;;;;;17.95;11.38;;;20.50;99.90;;;;;;5066959;28;20052;-75
2022/08/16 00:56:08;;;;;;;13.95;10.90;;;20.50;99.90;;;;;;5068052;28;20076;-74
2022/08/16 00:58:37;;;;;;;15.15;11.98;;;20.50;99.90;;;;;;5048887;28;20060;-75
2022/08/16 01:01:07;;;;;;;15.38;11.88;;;20.50;99.90;;;;;;5031085;28;20116;-76
2022/08/16 01:03:34;;;;;;;16.40;12.27;;;20.50;99.90;;;;;;5051723;28;20048;-77
2022/08/16 01:06:00;;;;;;;13.00;11.30;;;20.50;99.90;;;;;;5054069;28;20041;-77
2022/08/16 01:08:26;;;;;;;16.55;10.90;;;20.50;99.90;;;;;;5052727;28;20507;-77
2022/08/16 01:10:54;;;;;;;17.23;12.30;;;20.50;99.90;;;;;;5053725;28;20055;-77
2022/08/16 01:13:24;;;;;;;22.17;12.38;;;20.50;99.90;;;;;;5035924;28;20084;-77
2022/08/16 01:15:56;;;;;;;16.85;12.48;;;20.50;99.90;;;;;;5052936;28;20120;-75
2022/08/16 01:18:26;;;;;;;13.85;11.63;;;20.50;99.90;;;;;;5053037;28;20049;-77
2022/08/16 01:21:19;;;;;;;15.43;12.35;;;20.50;99.90;;;;;;5069465;28;20102;-76
2022/08/16 01:23:51;;;;;;;17.30;13.43;;;20.50;99.90;;;;;;4972240;28;20121;-76
2022/08/16 01:26:17;;;;;;;16.27;12.48;;;20.50;99.90;;;;;;4954939;28;20086;-77
2022/08/16 01:28:44;;;;;;;15.05;13.43;;;20.40;99.90;;;;;;4972401;28;20055;-77
2022/08/16 01:31:11;;;;;;;20.50;12.00;;;20.50;99.90;;;;;;4971468;28;20166;-77
2022/08/16 01:33:37;;;;;;;15.27;13.15;;;20.50;99.90;;;;;;4971449;28;20082;-76
2022/08/16 01:36:06;;;;;;;17.98;13.07;;;20.40;99.90;;;;;;4972053;28;20094;-77
2022/08/16 01:38:34;;;;;;;16.38;12.35;;;20.40;99.90;;;;;;4971589;28;20454;-77
2022/08/16 01:41:13;;;;;;;17.40;13.18;;;20.40;99.90;;;;;;4976280;28;20058;-75
2022/08/16 01:43:41;;;;;;;15.05;12.15;;;20.40;99.90;;;;;;4983449;28;20054;-76
2022/08/16 01:46:27;;;;;;;18.10;13.18;;;20.40;99.90;;;;;;4979745;28;20050;-76
2022/08/16 01:49:00;;;;;;;18.10;13.50;;;20.30;99.90;;;;;;4980838;28;20068;-77
2022/08/16 01:51:27;;;;;;;17.50;14.32;;;20.40;99.90;;;;;;4968815;28;20054;-77
2022/08/16 01:53:53;;;;;;;19.42;14.30;;;20.30;99.90;;;;;;4956830;28;20153;-78
2022/08/16 01:56:20;;;;;;;18.17;13.65;;;20.30;99.90;;;;;;4988606;28;20133;-78
2022/08/16 01:58:46;;;;;;;16.05;12.70;;;20.30;99.90;;;;;;4989251;28;20127;-78
2022/08/16 02:01:12;;;;;;;15.63;13.35;;;20.30;99.90;;;;;;5033947;28;20884;-78
2022/08/16 02:03:38;;;;;;;18.92;13.55;;;20.30;99.90;;;;;;5051841;28;20083;-75
2022/08/16 02:06:04;;;;;;;17.88;14.25;;;20.20;99.90;;;;;;5035888;28;20730;-76
2022/08/16 02:08:30;;;;;;;16.55;13.57;;;20.20;99.90;;;;;;5069952;28;20059;-76
2022/08/16 02:10:56;;;;;;;19.77;13.88;;;20.20;99.90;;;;;;5059535;28;20068;-78
2022/08/16 02:13:22;;;;;;;17.17;13.10;;;20.20;99.90;;;;;;5069126;28;20033;-77
2022/08/16 02:15:48;;;;;;;18.38;12.93;;;20.20;99.90;;;;;;5063744;28;20098;-76
2022/08/16 02:18:14;;;;;;;19.35;14.65;;;20.20;99.90;;;;;;5052948;28;20037;-75
2022/08/16 02:20:44;;;;;;;16.73;13.85;;;20.20;99.90;;;;;;5051925;28;20048;-75
2022/08/16 02:23:11;;;;;;;18.60;14.07;;;20.20;99.90;;;;;;5061003;28;20059;-78
2022/08/16 02:25:37;;;;;;;18.05;14.98;;;20.20;99.90;;;;;;5071101;28;20396;-78
2022/08/16 02:28:02;;;;;;;19.33;13.48;;;20.20;99.90;;;;;;5038441;28;20052;-76
2022/08/16 02:30:30;;;;;;;20.25;13.75;;;20.20;99.90;;;;;;5070504;28;20045;-78
2022/08/16 02:32:57;;;;;;;16.33;14.15;;;20.20;99.90;;;;;;5068700;28;20044;-77
2022/08/16 02:35:24;;;;;;;23.23;15.32;;;20.10;99.90;;;;;;5087137;28;20048;-78
2022/08/16 02:37:52;;;;;;;15.75;13.68;;;20.20;99.90;;;;;;5090026;28;20041;-77
2022/08/16 02:40:18;;;;;;;19.70;15.68;;;20.20;99.90;;;;;;5067498;28;20048;-77
2022/08/16 02:42:45;;;;;;;20.95;14.52;;;20.10;99.90;;;;;;5043262;28;20186;-78
2022/08/16 02:45:11;;;;;;;18.88;15.73;;;20.10;99.90;;;;;;5067277;28;20040;-76
2022/08/16 02:47:37;;;;;;;18.67;15.77;;;20.10;99.90;;;;;;5060328;28;20412;-76
2022/08/16 02:50:05;;;;;;;18.75;14.93;;;20.10;99.90;;;;;;5034325;28;20049;-77
2022/08/16 02:52:31;;;;;;;17.50;13.93;;;20.10;99.90;;;;;;5051029;28;20045;-79
2022/08/16 02:54:57;;;;;;;21.98;15.93;;;20.00;99.90;;;;;;5044044;28;20107;-78
2022/08/16 02:57:23;;;;;;;22.20;15.10;;;20.10;99.90;;;;;;5037833;28;20405;-77
2022/08/16 02:59:49;;;;;;;21.33;15.02;;;20.10;99.90;;;;;;5051595;28;20052;-78
2022/08/16 03:02:15;;;;;;;18.55;16.02;;;20.00;99.90;;;;;;5045397;28;20053;-77
2022/08/16 03:04:41;;;;;;;19.20;14.95;;;20.00;99.90;;;;;;5036885;28;20148;-78
2022/08/16 03:07:07;;;;;;;21.55;16.42;;;20.00;99.90;;;;;;5032649;28;20131;-76
2022/08/16 03:09:34;;;;;;;19.23;15.35;;;19.90;99.90;;;;;;5033898;28;20037;-77
2022/08/16 03:12:00;;;;;;;20.17;15.35;;;19.90;99.90;;;;;;5050707;28;20048;-78
2022/08/16 03:14:26;;;;;;;21.67;16.15;;;19.90;99.90;;;;;;5050462;28;20427;-78
2022/08/16 03:16:52;;;;;;;20.25;16.00;;;19.90;99.90;;;;;;5050397;28;20124;-77
2022/08/16 03:19:18;;;;;;;21.80;16.58;;;19.90;99.90;;;;;;5052879;28;20033;-77
2022/08/16 03:21:45;;;;;;;19.25;17.25;;;20.00;99.90;;;;;;5068724;28;20068;-79
2022/08/16 03:24:11;;;;;;;19.90;16.05;;;19.80;99.90;;;;;;5051718;28;20052;-78
2022/08/16 03:26:36;;;;;;;20.55;18.05;;;19.80;99.90;;;;;;5068039;28;20123;-76
2022/08/16 03:29:03;;;;;;;23.23;17.92;;;19.70;99.90;;;;;;5051849;28;20098;-78
2022/08/16 03:31:28;;;;;;;21.92;18.23;;;19.70;99.90;;;;;;5067703;28;20048;-79
2022/08/16 03:33:54;;;;;;;20.13;18.00;;;19.60;99.90;;;;;;5051739;28;20040;-78
2022/08/16 03:36:20;;;;;;;22.83;19.55;;;19.60;99.90;;;;;;5033274;28;20408;-78
2022/08/16 03:38:46;;;;;;;21.10;18.58;;;19.60;99.90;;;;;;5062276;28;20035;-78
2022/08/16 03:41:12;;;;;;;27.27;19.63;;;19.50;99.90;;;;;;5068051;28;20045;-78
2022/08/16 03:43:38;;;;;;;24.45;17.73;;;19.60;99.90;;;;;;5051348;28;20044;-77
2022/08/16 03:46:03;;;;;;;19.70;17.58;;;19.50;99.90;;;;;;5069097;28;20033;-77
2022/08/16 03:48:34;;;;;;;22.58;18.40;;;19.50;99.90;;;;;;5050979;28;20086;-75
2022/08/16 03:51:01;;;;;;;23.90;19.15;;;19.40;99.90;;;;;;5051422;28;20041;-77
2022/08/16 03:53:28;;;;;;;22.58;18.27;;;19.50;99.90;;;;;;5060849;28;20044;-79
2022/08/16 03:55:54;;;;;;;23.58;18.08;;;19.40;99.90;;;;;;5049771;28;20077;-78
2022/08/16 03:58:20;;;;;;;26.08;18.30;;;19.40;99.90;;;;;;5050070;28;20531;-77
2022/08/16 04:00:47;;;;;;;23.75;18.92;;;19.40;99.90;;;;;;5032146;28;20045;-78
2022/08/16 04:03:13;;;;;;;27.27;18.75;;;19.40;99.90;;;;;;5050755;28;20124;-79
2022/08/16 04:05:43;;;;;;;21.15;17.92;;;19.30;99.90;;;;;;5050026;28;20529;-77
2022/08/16 04:08:09;;;;;;;21.45;18.38;;;19.20;99.90;;;;;;5050048;28;20049;-74
2022/08/16 04:10:34;;;;;;;26.05;18.17;;;19.20;99.90;;;;;;5037867;28;20048;-78
2022/08/16 04:13:00;;;;;;;20.23;18.10;;;19.10;99.90;;;;;;5066271;28;20037;-77
2022/08/16 04:15:28;;;;;;;23.52;19.45;;;19.20;99.90;;;;;;5051145;28;20549;-75
2022/08/16 04:17:54;;;;;;;22.38;18.42;;;19.20;99.90;;;;;;5069165;28;20114;-77
2022/08/16 04:20:20;;;;;;;27.15;18.30;;;19.10;99.90;;;;;;5039451;28;20733;-76
2022/08/16 04:22:46;;;;;;;21.27;18.00;;;19.10;99.90;;;;;;5063945;28;20476;-77
2022/08/16 04:25:12;;;;;;;20.85;16.00;;;19.10;99.90;;;;;;5067260;28;20115;-78
2022/08/16 04:27:38;;;;;;;23.60;18.33;;;19.00;99.90;;;;;;5046625;28;20053;-77
2022/08/16 04:30:09;;;;;;;21.35;19.10;;;19.00;99.90;;;;;;5066082;28;20048;-75
2022/08/16 04:32:34;;;;;;;22.90;18.73;;;19.00;99.90;;;;;;5050867;28;20032;-78
2022/08/16 04:35:00;;;;;;;23.90;18.92;;;18.90;99.90;;;;;;5065581;28;20041;-77
2022/08/16 04:37:26;;;;;;;19.63;17.30;;;18.80;99.90;;;;;;5051585;28;20086;-77
2022/08/16 04:39:51;;;;;;;22.30;17.67;;;18.80;99.90;;;;;;5072046;28;20388;-78
2022/08/16 04:42:18;;;;;;;22.17;18.80;;;18.80;99.90;;;;;;5055249;28;20435;-78
2022/08/16 04:44:44;;;;;;;23.83;17.85;;;18.80;99.90;;;;;;5053598;28;20032;-77
2022/08/16 04:47:10;;;;;;;22.35;19.85;;;18.80;99.90;;;;;;5072761;28;20049;-77
2022/08/16 04:49:36;;;;;;;22.20;19.13;;;18.80;99.90;;;;;;5072413;28;20063;-76
2022/08/16 04:52:02;;;;;;;26.08;19.88;;;18.70;99.90;;;;;;5072682;28;20457;-76
2022/08/16 04:54:28;;;;;;;24.77;18.33;;;18.70;99.90;;;;;;5072832;28;20054;-77
2022/08/16 04:56:53;;;;;;;26.60;18.05;;;18.70;99.90;;;;;;5069702;28;20049;-76
2022/08/16 04:59:19;;;;;;;24.45;18.25;;;18.70;99.90;;;;;;5053499;28;20051;-77
2022/08/16 05:01:44;;;;;;;22.15;17.35;;;18.70;99.90;;;;;;5072273;28;20476;-78
2022/08/16 05:04:10;;;;;;;20.85;18.05;;;18.70;99.90;;;;;;5052382;28;20036;-77
2022/08/16 05:06:36;;;;;;;22.58;17.23;;;18.70;99.90;;;;;;5070304;28;20044;-78
2022/08/16 05:09:02;;;;;;;22.35;15.60;;;18.60;99.90;;;;;;5061827;28;20124;-76
2022/08/16 05:11:29;;;;;;;23.00;17.27;;;18.80;99.90;;;;;;5053181;28;20051;-77
2022/08/16 05:13:55;;;;;;;21.17;16.33;;;18.80;99.90;;;;;;5061141;28;20123;-77
2022/08/16 05:16:25;;;;;;;21.55;16.60;;;18.80;99.90;;;;;;5054271;28;20040;-76
2022/08/16 05:18:53;;;;;;;18.15;16.25;;;18.80;99.90;;;;;;5052912;28;20055;-77
2022/08/16 05:21:20;;;;;;;22.95;17.02;;;18.80;99.90;;;;;;5069747;28;20044;-76
2022/08/16 05:23:46;;;;;;;19.90;17.17;;;18.90;99.90;;;;;;5053254;28;20128;-77
2022/08/16 05:26:11;;;;;;;17.92;14.82;;;18.90;99.90;;;;;;5053002;28;20145;-77
2022/08/16 05:28:37;;;;;;;19.50;16.38;;;18.90;99.90;;;;;;5054021;28;20085;-79
2022/08/16 05:31:03;;;;;;;21.33;16.58;;;18.90;99.90;;;;;;5059380;28;20098;-77
2022/08/16 05:33:28;;;;;;;20.95;16.83;;;19.00;99.90;;;;;;5071562;28;20077;-77
2022/08/16 05:35:55;;;;;;;21.77;16.58;;;19.00;99.90;;;;;;5071457;28;20124;-78
2022/08/16 05:38:28;;;;;;;20.73;16.98;;;19.00;99.90;;;;;;5051913;28;20041;-77
2022/08/16 05:40:55;;;;;;;23.98;17.83;;;19.10;99.90;;;;;;5059497;28;20115;-76
2022/08/16 05:43:21;;;;;;;21.23;17.05;;;19.10;99.90;;;;;;5034400;28;20095;-76
2022/08/16 05:45:47;;;;;;;22.20;17.75;;;19.10;99.90;;;;;;5028448;28;20048;-76
2022/08/16 05:48:12;;;;;;;19.98;17.40;;;19.20;99.90;;;;;;5053101;28;20067;-75
2022/08/16 05:50:38;;;;;;;21.30;17.73;;;19.20;99.90;;;;;;5051584;28;20052;-76
2022/08/16 05:53:05;;;;;;;17.80;15.95;;;19.20;99.90;;;;;;5071806;28;20068;-76
2022/08/16 05:55:30;;;;;;;18.40;16.30;;;19.30;99.90;;;;;;5071802;28;20466;-77
2022/08/16 05:57:56;;;;;;;18.92;16.75;;;19.40;99.90;;;;;;5071564;28;20116;-77
2022/08/16 06:00:22;;;;;;;24.80;17.75;;;19.40;99.90;;;;;;5070345;28;20036;-78
2022/08/16 06:02:47;;;;;;;20.90;17.42;;;19.40;99.90;;;;;;5070445;28;20886;-76
2022/08/16 06:05:13;;;;;;;19.48;16.15;;;19.50;99.90;;;;;;5052003;28;20056;-78
2022/08/16 06:07:39;;;;;;;20.67;16.33;;;19.50;99.90;;;;;;5033753;28;20407;-78
2022/08/16 06:10:05;;;;;;;20.65;17.02;;;19.50;99.90;;;;;;5044301;28;20113;-74
2022/08/16 06:12:31;;;;;;;21.83;17.02;;;19.60;99.90;;;;;;5070023;28;20040;-79
2022/08/16 06:15:03;;;;;;;20.75;16.73;;;19.60;99.90;;;;;;5052105;28;20117;-77
2022/08/16 06:17:29;;;;;;;19.40;17.17;;;19.70;99.90;;;;;;5033843;28;20049;-78
2022/08/16 06:19:55;;;;;;;22.30;17.65;;;19.70;99.90;;;;;;5051896;28;20049;-78
2022/08/16 06:22:21;;;;;;;19.75;17.10;;;19.80;99.90;;;;;;5034623;28;20075;-78
2022/08/16 06:24:46;;;;;;;21.83;18.08;;;19.90;99.90;;;;;;5051885;28;20131;-77
2022/08/16 06:27:12;;;;;;;21.05;17.88;;;19.90;99.90;;;;;;5052240;28;20037;-79
2022/08/16 06:29:38;;;;;;;21.02;17.17;;;19.90;99.90;;;;;;5042008;28;20045;-78
2022/08/16 06:32:04;;;;;;;21.25;16.42;;;20.00;99.90;;;;;;5059142;28;20600;-77
2022/08/16 06:34:31;;;;;;;26.08;17.98;;;20.10;99.90;;;;;;5051462;28;20044;-78
2022/08/16 06:36:56;;;;;;;20.35;17.63;;;20.10;99.90;;;;;;5071006;28;20044;-79
2022/08/16 06:39:22;;;;;;;22.02;17.65;;;20.40;99.90;;;;;;5068239;28;20086;-78
2022/08/16 06:41:48;;;;;;;24.63;17.83;;;20.30;99.90;;;;;;5033905;28;20124;-78
2022/08/16 06:44:14;;;;;;;20.63;17.80;;;20.30;99.90;;;;;;5052802;28;20048;-79
2022/08/16 06:46:39;;;;;;;21.90;17.33;;;20.40;99.90;;;;;;5051326;28;20404;-79
2022/08/16 06:49:11;;;;;;;24.33;18.20;;;20.40;99.90;;;;;;5056764;28;20041;-78
2022/08/16 06:51:38;;;;;;;20.35;17.50;;;20.60;99.90;;;;;;5069933;28;20052;-81
2022/08/16 06:54:05;;;;;;;20.48;17.30;;;20.60;99.90;;;;;;5051175;28;20094;-80
2022/08/16 06:56:31;;;;;;;20.55;18.35;;;20.70;99.90;;;;;;5068593;28;20067;-80
2022/08/16 06:58:57;;;;;;;24.92;18.02;;;20.80;99.90;;;;;;5050474;28;20048;-79
2022/08/16 07:01:23;;;;;;;25.35;19.95;;;20.90;99.90;;;;;;5050240;28;20120;-78
2022/08/16 07:03:49;;;;;;;26.50;18.52;;;21.00;99.90;;;;;;5068028;28;20480;-79
2022/08/16 07:06:17;;;;;;;23.50;18.73;;;21.00;99.90;;;;;;5054568;28;20063;-78
2022/08/16 07:08:43;;;;;;;24.33;20.25;;;21.10;99.90;;;;;;5050780;28;20059;-80
2022/08/16 07:11:09;;;;;;;22.65;19.63;;;21.30;99.90;;;;;;5049844;28;20083;-80
2022/08/16 07:13:36;;;;;;;23.80;19.95;;;21.40;99.90;;;;;;5031806;28;20049;-75
2022/08/16 07:16:04;;;;;;;23.45;19.00;;;21.40;99.90;;;;;;5032782;28;20131;-80
2022/08/16 07:18:31;;;;;;;25.17;18.17;;;21.50;99.90;;;;;;5063258;28;20056;-78
2022/08/16 07:20:57;;;;;;;20.20;18.00;;;21.60;99.90;;;;;;5050126;28;20052;-80
2022/08/16 07:23:23;;;;;;;22.30;17.73;;;21.70;99.90;;;;;;5049903;28;20049;-79
2022/08/16 07:25:49;;;;;;;23.00;17.58;;;21.80;99.90;;;;;;5050473;28;20408;-79
2022/08/16 07:28:16;;;;;;;22.45;17.17;;;21.90;99.90;;;;;;5054503;28;20511;-79
2022/08/16 07:30:43;;;;;;;22.05;17.25;;;22.10;99.90;;;;;;5068388;28;20048;-79
2022/08/16 07:33:10;;;;;;;20.80;17.02;;;22.10;99.90;;;;;;5068441;28;20119;-83
2022/08/16 07:35:37;;;;;;;21.52;17.65;;;22.10;99.90;;;;;;5050954;28;20436;-80
2022/08/16 07:38:05;;;;;;;22.88;19.13;;;22.20;99.90;;;;;;5067526;28;20052;-78
2022/08/16 07:40:31;;;;;;;22.25;18.75;;;22.30;99.90;;;;;;5069183;28;20051;-78
2022/08/16 07:42:57;;;;;;;30.23;19.60;;;22.40;99.90;;;;;;5067262;28;20048;-77
2022/08/16 07:45:23;;;;;;;24.70;18.80;;;22.50;99.90;;;;;;5089928;28;20063;-78
2022/08/16 07:47:48;;;;;;;19.95;17.80;;;22.60;99.90;;;;;;5016587;28;1081924;-78
2022/08/16 07:50:15;;;;;;;20.58;16.75;;;22.70;99.90;;;;;;5061549;28;20186;-77
2022/08/16 07:52:42;;;;;;;20.90;17.98;;;22.80;99.90;;;;;;5069670;28;20048;-75
2022/08/16 07:55:10;;;;;;;21.90;18.20;;;22.80;99.90;;;;;;5069101;28;20380;-77
2022/08/16 07:57:36;;;;;;;18.15;16.17;;;22.90;99.90;;;;;;5048532;28;20036;-78
2022/08/16 08:00:02;;;;;;;20.42;16.23;;;23.10;99.90;;;;;;5070181;28;20503;-79
2022/08/16 08:02:28;;;;;;;26.73;16.63;;;23.30;99.90;;;;;;5052097;28;20491;-76
2022/08/16 08:04:55;;;;;;;20.42;16.35;;;23.40;99.90;;;;;;5069926;28;20056;-76
2022/08/16 08:07:21;;;;;;;23.98;15.98;;;23.60;99.90;;;;;;5070185;28;20089;-77
2022/08/16 08:09:47;;;;;;;21.83;15.32;;;23.80;99.90;;;;;;5069925;28;20055;-78
2022/08/16 08:12:13;;;;;;;18.90;15.70;;;24.00;99.90;;;;;;5069562;28;20541;-77
2022/08/16 08:14:38;;;;;;;22.73;16.27;;;24.20;99.90;;;;;;5069969;28;20044;-78
2022/08/16 08:17:06;;;;;;;17.35;14.95;;;24.30;99.90;;;;;;5069815;28;20044;-77
2022/08/16 08:19:32;;;;;;;17.73;13.68;;;24.50;99.90;;;;;;5069729;28;20041;-77
2022/08/16 08:21:58;;;;;;;15.48;13.57;;;24.70;99.90;;;;;;5070141;28;20052;-78
2022/08/16 08:24:24;;;;;;;15.00;12.25;;;24.80;99.90;;;;;;5069771;28;20052;-79
2022/08/16 08:26:50;;;;;;;16.55;11.60;;;25.00;99.90;;;;;;5051666;28;20406;-76
2022/08/16 08:29:16;;;;;;;15.23;11.95;;;25.10;99.90;;;;;;5070187;28;20086;-79
2022/08/16 08:31:41;;;;;;;15.60;12.02;;;25.20;99.90;;;;;;5070146;28;20040;-77
2022/08/16 08:34:07;;;;;;;15.40;11.35;;;25.30;99.90;;;;;;5069864;28;20049;-78
2022/08/16 08:36:37;;;;;;;16.83;12.20;;;25.50;99.90;;;;;;5069798;28;20044;-78
2022/08/16 08:39:04;;;;;;;14.70;11.57;;;25.60;99.90;;;;;;5067892;28;20430;-78
2022/08/16 08:41:30;;;;;;;17.50;12.20;;;25.90;99.90;;;;;;5060665;28;20043;-75
2022/08/16 08:43:57;;;;;;;26.95;11.43;;;26.00;99.90;;;;;;5080316;28;20036;-77
2022/08/16 08:46:24;;;;;;;13.57;10.82;;;26.20;99.90;;;;;;5053825;28;20051;-79
2022/08/16 08:48:51;;;;;;;14.30;11.40;;;26.40;99.90;;;;;;5059306;28;20045;-79
2022/08/16 08:51:17;;;;;;;17.02;10.95;;;26.50;99.90;;;;;;5031835;28;20553;-77
2022/08/16 08:53:44;;;;;;;13.35;11.00;;;26.60;99.90;;;;;;5057069;28;20044;-78
2022/08/16 08:56:12;;;;;;;17.20;10.30;;;26.70;99.90;;;;;;5055263;28;20037;-77
2022/08/16 08:58:38;;;;;;;16.45;10.18;;;26.80;99.90;;;;;;5056263;28;20400;-77
2022/08/16 09:01:06;;;;;;;12.45;9.90;;;26.90;99.90;;;;;;5026124;28;20114;-77
2022/08/16 09:03:33;;;;;;;14.38;10.50;;;27.00;99.90;;;;;;5051965;28;20052;-78
2022/08/16 09:05:59;;;;;;;16.20;11.13;;;27.00;99.90;;;;;;5046576;28;20060;-75
2022/08/16 09:08:25;;;;;;;12.80;11.10;;;27.00;99.90;;;;;;5040730;28;20362;-76
2022/08/16 09:10:55;;;;;;;17.15;12.60;;;27.10;99.90;;;;;;5069394;28;20052;-77
2022/08/16 09:13:22;;;;;;;15.32;11.80;;;27.20;99.90;;;;;;5043579;28;20044;-73
2022/08/16 09:15:48;;;;;;;14.63;12.30;;;27.30;99.90;;;;;;5049005;28;20049;-77
2022/08/16 09:18:16;;;;;;;12.80;10.05;;;27.30;99.90;;;;;;5050189;28;20060;-76
2022/08/16 09:20:43;;;;;;;17.40;11.27;;;27.40;99.90;;;;;;5049229;28;20457;-77
2022/08/16 09:23:09;;;;;;;12.32;9.60;;;27.50;99.90;;;;;;5049758;28;20485;-77
2022/08/16 09:25:35;;;;;;;15.55;11.52;;;27.40;99.90;;;;;;5053857;28;20056;-81
2022/08/16 09:28:01;;;;;;;13.57;9.38;;;27.50;99.90;;;;;;5052900;28;20063;-76
2022/08/16 09:30:27;;;;;;;12.85;9.90;;;27.50;99.90;;;;;;5056852;28;20040;-75
2022/08/16 09:32:53;;;;;;;12.80;9.48;;;27.60;99.90;;;;;;5054593;28;20411;-77
2022/08/16 09:35:20;;;;;;;14.18;10.63;;;27.70;99.90;;;;;;5072778;28;20458;-77
2022/08/16 09:37:46;;;;;;;15.27;11.98;;;27.70;99.90;;;;;;5072700;28;20063;-75
2022/08/16 09:40:12;;;;;;;12.90;10.65;;;27.70;99.90;;;;;;5072839;28;20041;-77
2022/08/16 09:42:39;;;;;;;17.23;10.60;;;27.80;99.90;;;;;;5072789;28;20040;-76
2022/08/16 09:45:07;;;;;;;13.00;11.05;;;27.90;99.90;;;;;;5072367;28;20094;-77
2022/08/16 09:47:39;;;;;;;15.23;10.48;;;27.90;99.90;;;;;;5054116;28;20113;-76
2022/08/16 09:50:10;;;;;;;14.30;11.35;;;28.10;99.90;;;;;;5072766;28;20087;-78
2022/08/16 09:52:36;;;;;;;15.55;10.10;;;28.10;99.90;;;;;;5072645;28;20090;-78
2022/08/16 09:55:10;;;;;;;14.98;9.30;;;28.30;99.90;;;;;;5072716;28;20040;-74
2022/08/16 09:57:36;;;;;;;10.40;8.87;;;28.40;99.90;;;;;;5054444;28;20487;-77
2022/08/16 10:00:07;;;;;;;16.65;10.73;;;28.50;99.90;;;;;;5072366;28;20275;-78
2022/08/16 10:02:33;;;;;;;17.83;9.63;;;28.50;99.90;;;;;;5071509;28;20094;-77
2022/08/16 10:04:59;;;;;;;15.35;11.30;;;28.60;99.90;;;;;;5052027;28;20040;-78
2022/08/16 10:07:27;;;;;;;12.07;8.70;;;28.60;99.90;;;;;;5064437;28;20036;-80
2022/08/16 10:09:53;;;;;;;11.15;8.95;;;28.70;99.90;;;;;;5034762;28;20045;-77
2022/08/16 10:15:03;;;;;;;;;;;28.90;99.90;;;;;;5045703;28;20063;-77
2022/08/16 10:17:29;;;;;;;13.65;9.15;;;29.00;99.90;;;;;;5066709;28;19921;-78
2022/08/16 10:19:55;;;;;;;12.32;8.88;;;29.00;99.90;;;;;;5063866;28;20041;-78
2022/08/16 10:22:21;;;;;;;13.88;8.55;;;29.10;99.90;;;;;;5069889;28;20400;-77
2022/08/16 10:24:47;;;;;;;16.50;7.47;;;29.20;99.90;;;;;;5067981;28;20045;-80
2022/08/16 10:27:13;;;;;;;14.88;7.63;;;29.40;99.60;;;;;;5067264;28;20051;-78
2022/08/16 10:29:39;;;;;;;13.05;9.02;;;29.30;99.00;;;;;;5052778;28;20116;-78
2022/08/16 10:32:05;;;;;;;8.43;7.55;;;29.30;98.90;;;;;;5043021;28;20061;-75
2022/08/16 10:34:31;;;;;;;11.68;8.77;;;29.20;99.20;;;;;;5053806;28;20041;-76
2022/08/16 10:36:57;;;;;;;13.27;8.02;;;29.30;99.90;;;;;;5045157;28;20047;-78
2022/08/16 10:39:22;;;;;;;12.75;8.32;;;29.50;99.90;;;;;;5025515;28;20063;-75
2022/08/16 10:41:48;;;;;;;10.57;8.95;;;29.60;98.80;;;;;;5033459;28;20075;-79
2022/08/16 10:44:14;;;;;;;10.80;7.70;;;29.50;99.10;;;;;;5037395;28;20049;-80
2022/08/16 10:46:41;;;;;;;10.25;8.02;;;29.40;98.90;;;;;;5063047;28;20126;-75
2022/08/16 10:49:08;;;;;;;13.95;7.82;;;29.60;98.80;;;;;;5077188;28;20147;-79
2022/08/16 10:51:37;;;;;;;11.88;7.07;;;29.60;99.10;;;;;;5079190;28;20113;-78
2022/08/16 10:54:03;;;;;;;10.90;7.22;;;29.70;98.90;;;;;;5085270;28;20491;-75
2022/08/16 10:56:29;;;;;;;12.55;7.30;;;29.60;99.20;;;;;;5076455;28;20130;-76
2022/08/16 10:58:56;;;;;;;12.00;6.45;;;29.80;98.90;;;;;;5080334;28;20140;-81
2022/08/16 11:01:24;;;;;;;10.85;6.63;;;29.90;98.50;;;;;;5077438;28;20050;-76
2022/08/16 11:03:52;;;;;;;8.98;6.70;;;30.00;98.50;;;;;;5070456;28;20051;-75
2022/08/16 11:06:18;;;;;;;11.05;6.13;;;30.00;98.20;;;;;;5081944;28;20049;-81
2022/08/16 11:08:44;;;;;;;9.95;5.40;;;29.90;97.60;;;;;;5074798;28;20051;-77
2022/08/16 11:11:12;;;;;;;8.43;5.45;;;29.80;97.50;;;;;;5062719;28;20126;-76
2022/08/16 11:13:37;;;;;;;9.02;5.97;;;30.00;97.20;;;;;;5082387;28;20048;-76
2022/08/16 11:16:04;;;;;;;9.05;5.85;;;30.00;96.50;;;;;;5055308;28;20049;-78
2022/08/16 11:18:30;;;;;;;9.75;6.20;;;30.00;97.00;;;;;;5081553;28;20093;-80
2022/08/16 11:20:58;;;;;;;8.43;5.30;;;30.20;97.40;;;;;;5081184;28;20123;-74
2022/08/16 11:23:25;;;;;;;9.70;5.47;;;30.20;97.40;;;;;;5066373;28;20091;-79
2022/08/16 11:25:51;;;;;;;11.13;6.00;;;30.20;97.20;;;;;;5068906;28;20517;-74
2022/08/16 11:28:18;;;;;;;9.38;6.00;;;30.30;97.20;;;;;;5091216;28;20372;-73
2022/08/16 11:30:45;;;;;;;8.57;5.22;;;30.20;96.70;;;;;;5073087;28;20085;-77
2022/08/16 11:33:11;;;;;;;15.15;6.03;;;30.20;97.20;;;;;;5080598;28;20090;-75
2022/08/16 11:35:38;;;;;;;8.63;5.70;;;30.20;96.30;;;;;;5078412;28;20067;-78
2022/08/16 11:38:13;;;;;;;10.93;5.32;;;30.10;96.60;;;;;;5085392;28;20093;-79
2022/08/16 11:40:51;;;;;;;8.32;5.55;;;30.20;96.80;;;;;;5076855;28;20071;-77
2022/08/16 11:43:23;;;;;;;13.50;6.18;;;30.20;96.60;;;;;;5090714;28;20131;-72
2022/08/16 11:45:50;;;;;;;11.25;6.10;;;30.20;96.10;;;;;;5088967;28;20509;-75
2022/08/16 11:48:17;;;;;;;7.75;6.53;;;30.20;96.70;;;;;;5062697;28;20062;-73
2022/08/16 11:50:44;;;;;;;9.18;5.30;;;30.30;96.80;;;;;;5080989;28;20483;-76
2022/08/16 11:53:11;;;;;;;12.32;5.72;;;30.10;96.30;;;;;;5078328;28;20048;-75
2022/08/16 11:55:39;;;;;;;8.80;5.10;;;30.30;96.60;;;;;;5077692;28;20044;-76
2022/08/16 11:58:07;;;;;;;8.95;5.20;;;30.20;96.10;;;;;;5079741;28;20111;-77
2022/08/16 12:00:36;;;;;;;10.15;5.57;;;30.20;96.00;;;;;;5057377;28;20044;-74
2022/08/16 12:03:03;;;;;;;10.32;5.88;;;30.30;95.90;;;;;;5059529;28;20040;-75
2022/08/16 12:05:29;;;;;;;12.63;5.28;;;30.30;95.80;;;;;;5069337;28;20040;-75
2022/08/16 12:07:55;;;;;;;8.80;5.22;;;30.00;95.50;;;;;;5076496;28;20079;-73
2022/08/16 12:10:27;;;;;;;9.05;5.05;;;29.90;95.50;;;;;;5057758;28;20044;-78
2022/08/16 12:12:54;;;;;;;6.70;4.97;;;29.80;96.00;;;;;;5080734;28;20059;-75
2022/08/16 12:15:20;;;;;;;6.65;4.80;;;29.80;95.90;;;;;;5077414;28;20036;-75
2022/08/16 12:17:46;;;;;;;8.75;4.57;;;29.90;95.90;;;;;;5058069;28;20399;-75
2022/08/16 12:20:17;;;;;;;10.23;5.03;;;29.90;95.50;;;;;;5078653;28;20048;-76
2022/08/16 12:22:44;;;;;;;9.32;4.78;;;29.60;95.10;;;;;;5069783;28;20499;-76
2022/08/16 12:25:13;;;;;;;10.00;5.13;;;29.80;95.40;;;;;;5031799;28;20081;-77
2022/08/16 12:27:40;;;;;;;10.10;4.47;;;30.00;95.50;;;;;;5077052;28;20047;-77
2022/08/16 12:30:08;;;;;;;9.68;4.78;;;30.10;94.70;;;;;;5051417;28;20044;-74
2022/08/16 12:32:33;;;;;;;6.35;4.15;;;30.00;94.60;;;;;;5048698;28;20052;-75